createdAt,value
2018-11-07T00:01:48.453Z,12.00
2018-11-07T00:03:56.208Z,11.50
2018-11-07T00:06:04.071Z,10.67
2018-11-07T00:08:09.257Z,16.53
2018-11-07T00:10:35.389Z,16.63
2018-11-07T00:12:43.151Z,13.87
2018-11-07T00:14:50.841Z,16.63
2018-11-07T00:16:58.619Z,15.87
2018-11-07T00:19:06.921Z,15.13
2018-11-07T00:21:14.649Z,14.83
2018-11-07T00:23:22.413Z,17.00
2018-11-07T00:25:30.762Z,12.80
2018-11-07T00:27:38.545Z,13.77
2018-11-07T00:29:46.305Z,11.77
2018-11-07T00:31:54.108Z,14.07
2018-11-07T00:34:01.993Z,10.90
2018-11-07T00:36:09.740Z,15.90
2018-11-07T00:38:17.472Z,13.20
2018-11-07T00:40:25.209Z,11.45
2018-11-07T00:42:32.940Z,14.10
2018-11-07T00:44:40.731Z,8.70
2018-11-07T00:46:48.465Z,11.20
2018-11-07T00:48:56.303Z,9.97
2018-11-07T00:51:04.127Z,10.50
2018-11-07T00:53:11.851Z,10.87
2018-11-07T00:55:20.483Z,11.20
2018-11-07T00:57:28.298Z,9.80
2018-11-07T00:59:36.127Z,10.30
2018-11-07T01:01:43.865Z,11.23
2018-11-07T01:03:51.737Z,10.57
2018-11-07T01:05:59.330Z,12.73
2018-11-07T01:08:07.058Z,9.87
2018-11-07T01:10:12.804Z,9.20
2018-11-07T01:12:20.549Z,8.30
2018-11-07T01:14:28.273Z,10.00
2018-11-07T01:16:37.025Z,8.90
2018-11-07T01:18:44.870Z,10.53
2018-11-07T01:20:52.568Z,9.63
2018-11-07T01:23:00.943Z,11.47
2018-11-07T01:25:10.157Z,8.83
2018-11-07T01:27:18.145Z,11.90
2018-11-07T01:29:25.841Z,11.13
2018-11-07T01:31:33.578Z,11.43
2018-11-07T01:33:41.375Z,10.97
2018-11-07T01:35:49.090Z,11.73
2018-11-07T01:37:56.811Z,10.97
2018-11-07T01:40:04.548Z,16.97
2018-11-07T01:42:12.388Z,13.03
2018-11-07T01:44:20.221Z,12.90
2018-11-07T01:46:27.906Z,17.00
2018-11-07T01:48:35.632Z,15.70
2018-11-07T01:50:43.343Z,12.23
2018-11-07T01:52:51.066Z,9.30
2018-11-07T01:54:58.830Z,8.67
2018-11-07T01:57:06.573Z,10.73
2018-11-07T01:59:14.291Z,12.87
2018-11-07T02:01:22.152Z,10.98
2018-11-07T02:03:29.948Z,11.87
2018-11-07T02:05:37.697Z,10.20
2018-11-07T02:07:45.395Z,13.37
2018-11-07T02:09:53.136Z,11.37
2018-11-07T02:12:01.452Z,12.60
2018-11-07T02:14:09.157Z,16.80
2018-11-07T02:16:17.769Z,17.80
2018-11-07T02:18:25.483Z,16.00
2018-11-07T02:20:33.184Z,17.93
2018-11-07T02:22:41.881Z,14.53
2018-11-07T02:24:49.656Z,14.03
2018-11-07T02:26:57.400Z,14.17
2018-11-07T02:29:05.213Z,16.47
2018-11-07T02:31:15.730Z,14.80
2018-11-07T02:33:23.415Z,14.17
2018-11-07T02:35:31.110Z,11.53
2018-11-07T02:37:39.153Z,13.93
2018-11-07T02:39:46.953Z,10.80
2018-11-07T02:41:54.751Z,12.87
2018-11-07T02:44:02.381Z,11.50
2018-11-07T02:46:10.146Z,14.63
2018-11-07T02:48:17.864Z,17.05
2018-11-07T02:50:25.674Z,10.83
2018-11-07T02:52:33.352Z,13.57
2018-11-07T02:54:41.944Z,10.07
2018-11-07T02:56:50.523Z,12.83
2018-11-07T02:58:58.716Z,14.73
2018-11-07T03:01:06.630Z,17.33
2018-11-07T03:03:14.280Z,16.80
2018-11-07T03:05:25.829Z,14.73
2018-11-07T03:07:33.618Z,14.77
2018-11-07T03:09:41.336Z,11.40
2018-11-07T03:11:49.053Z,13.60
2018-11-07T03:13:57.577Z,12.77
2018-11-07T03:16:05.404Z,12.43
2018-11-07T03:18:13.234Z,13.37
2018-11-07T03:20:21.060Z,14.17
2018-11-07T03:22:28.799Z,11.67
2018-11-07T03:24:36.534Z,11.20
2018-11-07T03:26:44.188Z,11.97
2018-11-07T03:28:51.913Z,11.40
2018-11-07T03:30:59.616Z,12.67
2018-11-07T03:33:09.626Z,11.13
2018-11-07T03:35:28.238Z,11.75
2018-11-07T03:37:36.062Z,11.60
2018-11-07T03:39:43.926Z,11.97
2018-11-07T03:41:52.609Z,8.70
2018-11-07T03:44:00.918Z,8.77
2018-11-07T03:46:08.823Z,13.40
2018-11-07T03:48:17.780Z,9.73
2018-11-07T03:50:25.524Z,7.78
2018-11-07T03:52:33.792Z,11.90
2018-11-07T03:54:41.960Z,8.93
2018-11-07T03:56:49.785Z,10.57
2018-11-07T03:58:58.691Z,9.83
2018-11-07T04:01:06.762Z,9.17
2018-11-07T04:03:14.792Z,7.63
2018-11-07T04:05:22.578Z,9.90
2018-11-07T04:07:30.312Z,9.23
2018-11-07T04:09:38.319Z,8.30
2018-11-07T04:11:46.366Z,9.45
2018-11-07T04:13:54.061Z,10.50
2018-11-07T04:16:02.816Z,8.00
2018-11-07T04:18:10.538Z,10.73
2018-11-07T04:20:18.303Z,8.30
2018-11-07T04:22:26.032Z,12.43
2018-11-07T04:24:33.753Z,10.00
2018-11-07T04:26:41.482Z,13.50
2018-11-07T04:28:49.404Z,12.33
2018-11-07T04:30:57.137Z,13.50
2018-11-07T04:33:04.856Z,11.27
2018-11-07T04:35:13.370Z,10.47
2018-11-07T04:37:21.074Z,14.45
2018-11-07T04:39:28.772Z,9.73
2018-11-07T04:41:36.481Z,8.83
2018-11-07T04:43:44.452Z,7.93
2018-11-07T04:45:52.180Z,9.45
2018-11-07T04:47:59.984Z,8.50
2018-11-07T04:50:09.312Z,7.53
2018-11-07T04:52:18.266Z,6.53
2018-11-07T04:54:25.971Z,8.55
2018-11-07T04:56:34.044Z,7.87
2018-11-07T04:58:42.271Z,8.23
2018-11-07T05:00:49.952Z,12.50
2018-11-07T05:02:58.184Z,12.90
2018-11-07T05:05:06.224Z,9.63
2018-11-07T05:07:13.997Z,11.77
2018-11-07T05:09:21.736Z,12.80
2018-11-07T05:11:29.756Z,12.23
2018-11-07T05:13:38.251Z,9.97
2018-11-07T05:15:47.006Z,8.47
2018-11-07T05:17:54.432Z,10.63
2018-11-07T05:20:02.298Z,8.83
2018-11-07T05:22:10.212Z,9.10
2018-11-07T05:24:18.549Z,9.43
2018-11-07T05:26:26.475Z,7.60
2018-11-07T05:28:34.405Z,10.57
2018-11-07T05:30:42.412Z,10.47
2018-11-07T05:32:50.472Z,15.45
2018-11-07T05:34:58.427Z,9.50
2018-11-07T05:37:06.939Z,9.90
2018-11-07T05:39:14.800Z,9.93
2018-11-07T05:41:23.598Z,8.03
2018-11-07T05:43:31.322Z,7.47
2018-11-07T05:45:39.233Z,13.50
2018-11-07T05:47:47.016Z,14.87
2018-11-07T05:49:55.377Z,12.00
2018-11-07T05:52:03.389Z,12.40
2018-11-07T05:54:11.116Z,14.20
2018-11-07T05:56:18.906Z,13.30
2018-11-07T05:58:26.889Z,21.13
2018-11-07T06:00:34.640Z,17.85
2018-11-07T06:02:42.592Z,18.07
2018-11-07T06:04:50.348Z,15.87
2018-11-07T06:06:58.085Z,16.60
2018-11-07T06:09:07.508Z,17.30
2018-11-07T06:11:15.328Z,14.83
2018-11-07T06:13:23.135Z,13.98
2018-11-07T06:15:30.879Z,10.90
2018-11-07T06:17:38.695Z,10.87
2018-11-07T06:19:47.599Z,12.53
2018-11-07T06:21:55.732Z,14.10
2018-11-07T06:24:03.692Z,20.72
2018-11-07T06:26:11.551Z,20.83
2018-11-07T06:28:19.247Z,19.67
2018-11-07T06:30:27.253Z,19.90
2018-11-07T06:32:35.120Z,18.37
2018-11-07T06:34:45.611Z,18.73
2018-11-07T06:36:53.325Z,27.70
2018-11-07T06:39:01.233Z,26.13
2018-11-07T06:41:08.925Z,22.40
2018-11-07T06:43:16.662Z,22.67
2018-11-07T06:45:24.388Z,23.30
2018-11-07T06:47:32.106Z,19.40
2018-11-07T06:49:40.175Z,17.20
2018-11-07T06:51:48.349Z,15.40
2018-11-07T06:53:56.501Z,14.97
2018-11-07T06:56:04.300Z,13.27
2018-11-07T06:58:12.096Z,12.07
2018-11-07T07:00:19.897Z,12.20
2018-11-07T07:02:27.643Z,11.17
2018-11-07T07:04:35.336Z,12.80
2018-11-07T07:06:43.211Z,12.07
2018-11-07T07:08:50.942Z,11.93
2018-11-07T07:10:58.729Z,10.70
2018-11-07T07:13:06.690Z,14.95
2018-11-07T07:15:15.915Z,12.60
2018-11-07T07:17:23.866Z,12.50
2018-11-07T07:19:31.700Z,15.80
2018-11-07T07:21:37.990Z,12.53
2018-11-07T07:23:45.248Z,12.47
2018-11-07T07:25:53.218Z,11.93
2018-11-07T07:28:03.186Z,15.70
2018-11-07T07:30:21.721Z,12.33
2018-11-07T07:32:29.432Z,13.80
2018-11-07T07:34:37.471Z,15.57
2018-11-07T07:36:46.582Z,14.33
2018-11-07T07:38:54.508Z,13.23
2018-11-07T07:41:02.215Z,15.13
2018-11-07T07:43:10.068Z,12.80
2018-11-07T07:45:20.002Z,16.50
2018-11-07T07:47:28.777Z,15.57
2018-11-07T07:49:36.683Z,16.13
2018-11-07T07:51:44.544Z,19.20
2018-11-07T07:53:52.301Z,24.80
2018-11-07T07:56:01.313Z,17.50
2018-11-07T07:58:09.063Z,15.97
2018-11-07T08:00:20.751Z,17.62
2018-11-07T08:02:28.495Z,14.70
2018-11-07T08:04:36.443Z,16.93
2018-11-07T08:06:44.190Z,16.37
2018-11-07T08:08:51.919Z,16.60
2018-11-07T08:10:59.714Z,16.33
2018-11-07T08:13:07.548Z,15.70
2018-11-07T08:15:16.301Z,12.17
2018-11-07T08:17:24.606Z,17.60
2018-11-07T08:19:32.379Z,18.67
2018-11-07T08:21:40.245Z,15.90
2018-11-07T08:23:48.090Z,16.40
2018-11-07T08:25:55.814Z,18.70
2018-11-07T08:28:03.501Z,16.00
2018-11-07T08:30:19.746Z,14.90
2018-11-07T08:32:27.574Z,13.45
2018-11-07T08:34:35.307Z,16.30
2018-11-07T08:36:43.218Z,14.70
2018-11-07T08:38:51.166Z,17.50
2018-11-07T08:40:58.912Z,15.63
2018-11-07T08:43:06.654Z,15.00
2018-11-07T08:45:14.714Z,12.90
2018-11-07T08:47:22.434Z,14.63
2018-11-07T08:49:30.187Z,14.10
2018-11-07T08:51:37.924Z,11.03
2018-11-07T08:53:45.768Z,10.57
2018-11-07T08:55:53.745Z,10.70
2018-11-07T08:58:02.169Z,11.97
2018-11-07T09:00:15.824Z,10.60
2018-11-07T09:02:23.621Z,10.78
2018-11-07T09:04:31.592Z,12.55
2018-11-07T09:06:39.388Z,12.23
2018-11-07T09:08:47.174Z,13.80
2018-11-07T09:10:54.967Z,13.43
2018-11-07T09:13:04.759Z,10.43
2018-11-07T09:15:23.240Z,13.07
2018-11-07T09:17:28.396Z,9.17
2018-11-07T09:19:36.245Z,12.80
2018-11-07T09:21:44.098Z,11.43
2018-11-07T09:23:51.894Z,12.70
2018-11-07T09:25:59.645Z,10.40
2018-11-07T09:28:07.394Z,10.90
2018-11-07T09:30:20.218Z,9.85
2018-11-07T09:32:27.958Z,11.07
2018-11-07T09:34:35.849Z,10.20
2018-11-07T09:36:44.228Z,9.47
2018-11-07T09:38:52.005Z,20.50
2018-11-07T09:41:00.976Z,14.77
2018-11-07T09:43:08.861Z,9.90
2018-11-07T09:45:18.948Z,9.13
2018-11-07T09:47:28.194Z,11.83
2018-11-07T09:49:37.475Z,12.37
2018-11-07T09:51:45.278Z,10.75
2018-11-07T09:53:53.975Z,11.57
2018-11-07T09:56:05.233Z,8.10
2018-11-07T09:58:13.044Z,7.77
2018-11-07T10:00:22.530Z,9.80
2018-11-07T10:02:31.010Z,12.27
2018-11-07T10:04:39.750Z,12.97
2018-11-07T10:06:50.104Z,10.67
2018-11-07T10:09:00.775Z,12.03
2018-11-07T10:11:09.113Z,11.43
2018-11-07T10:13:16.877Z,9.60
2018-11-07T10:15:24.668Z,9.15
2018-11-07T10:17:29.581Z,9.23
2018-11-07T10:19:37.624Z,9.60
2018-11-07T10:21:46.573Z,10.27
2018-11-07T10:23:54.358Z,14.77
2018-11-07T10:26:02.288Z,11.53
2018-11-07T10:28:10.379Z,11.60
2018-11-07T10:30:20.144Z,10.90
2018-11-07T10:32:30.421Z,11.13
2018-11-07T10:34:38.416Z,9.70
2018-11-07T10:36:46.109Z,11.43
2018-11-07T10:38:54.911Z,10.97
2018-11-07T10:41:03.747Z,9.63
2018-11-07T10:43:11.973Z,8.80
2018-11-07T10:45:20.004Z,9.57
2018-11-07T10:47:27.751Z,9.10
2018-11-07T10:49:37.619Z,8.50
2018-11-07T10:51:45.644Z,9.70
2018-11-07T10:53:53.422Z,9.08
2018-11-07T10:56:01.163Z,9.47
2018-11-07T10:58:09.373Z,8.47
2018-11-07T11:00:35.259Z,9.90
2018-11-07T11:02:53.744Z,10.37
2018-11-07T11:05:01.688Z,9.50
2018-11-07T11:07:09.499Z,11.70
2018-11-07T11:09:17.247Z,8.90
2018-11-07T11:11:25.231Z,10.37
2018-11-07T11:13:35.976Z,8.37
2018-11-07T11:15:43.848Z,9.10
2018-11-07T11:17:49.242Z,9.17
2018-11-07T11:19:57.094Z,8.90
2018-11-07T11:22:04.933Z,8.07
2018-11-07T11:24:12.617Z,9.77
2018-11-07T11:26:20.712Z,7.17
2018-11-07T11:28:28.465Z,9.17
2018-11-07T11:30:36.504Z,8.80
2018-11-07T11:32:44.285Z,7.30
2018-11-07T11:34:52.240Z,7.97
2018-11-07T11:37:00.060Z,8.13
2018-11-07T11:39:12.105Z,10.07
2018-11-07T11:41:20.279Z,9.57
2018-11-07T11:43:28.392Z,8.40
2018-11-07T11:45:36.298Z,7.17
2018-11-07T11:47:44.445Z,6.17
2018-11-07T11:49:52.299Z,7.13
2018-11-07T11:52:00.415Z,9.20
2018-11-07T11:54:08.377Z,9.53
2018-11-07T11:56:16.118Z,8.00
2018-11-07T11:58:23.893Z,12.98
2018-11-07T12:00:31.654Z,7.63
2018-11-07T12:02:39.400Z,8.97
2018-11-07T12:04:47.396Z,7.53
2018-11-07T12:06:55.082Z,6.60
2018-11-07T12:09:02.973Z,9.47
2018-11-07T12:11:11.301Z,8.07
2018-11-07T12:13:19.102Z,6.67
2018-11-07T12:15:27.978Z,8.20
2018-11-07T12:17:35.659Z,7.35
2018-11-07T12:19:40.977Z,7.90
2018-11-07T12:21:48.816Z,9.23
2018-11-07T12:24:03.404Z,7.33
2018-11-07T12:26:15.277Z,7.70
2018-11-07T12:28:23.166Z,7.87
2018-11-07T12:30:32.116Z,8.57
2018-11-07T12:32:39.984Z,10.60
2018-11-07T12:34:47.783Z,6.80
2018-11-07T12:36:56.283Z,6.27
2018-11-07T12:39:08.103Z,7.70
2018-11-07T12:41:18.795Z,9.00
2018-11-07T12:43:26.584Z,7.50
2018-11-07T12:45:34.659Z,5.83
2018-11-07T12:47:43.093Z,11.80
2018-11-07T12:49:50.895Z,10.23
2018-11-07T12:51:58.701Z,9.77
2018-11-07T12:54:06.587Z,9.00
2018-11-07T12:56:15.472Z,8.00
2018-11-07T12:58:23.445Z,7.10
2018-11-07T13:00:31.067Z,6.63
2018-11-07T13:02:38.869Z,7.27
2018-11-07T13:04:47.149Z,5.10
2018-11-07T13:06:56.049Z,8.83
2018-11-07T13:09:03.819Z,7.53
2018-11-07T13:11:11.688Z,8.90
2018-11-07T13:13:19.915Z,6.55
2018-11-07T13:15:29.754Z,8.23
2018-11-07T13:17:37.595Z,6.55
2018-11-07T13:19:45.430Z,6.97
2018-11-07T13:21:53.162Z,5.33
2018-11-07T13:24:02.251Z,6.33
2018-11-07T13:26:10.037Z,5.53
2018-11-07T13:28:19.064Z,4.63
2018-11-07T13:30:26.701Z,4.40
2018-11-07T13:32:34.579Z,5.97
2018-11-07T13:39:02.828Z,6.03
2018-11-07T13:41:10.239Z,3.03
2018-11-07T13:43:18.219Z,4.60
2018-11-07T13:45:26.886Z,4.13
2018-11-07T13:47:34.505Z,6.45
2018-11-07T13:49:42.228Z,3.83
2018-11-07T13:56:06.711Z,2.67
2018-11-07T13:58:14.658Z,2.77
2018-11-07T14:00:23.601Z,5.00
2018-11-07T14:02:31.446Z,3.33
2018-11-07T14:04:39.205Z,2.30
2018-11-07T14:11:03.796Z,3.93
2018-11-07T14:13:11.505Z,2.70
2018-11-07T14:15:20.159Z,2.98
2018-11-07T14:17:27.962Z,2.80
2018-11-07T14:19:35.835Z,3.22
2018-11-07T14:21:40.822Z,2.50
2018-11-07T14:23:48.787Z,4.63
2018-11-07T14:25:56.578Z,3.90
2018-11-07T14:28:04.475Z,3.03
2018-11-07T14:34:31.517Z,2.87
2018-11-07T14:36:39.225Z,3.43
2018-11-07T14:38:47.576Z,3.47
2018-11-07T14:40:55.187Z,4.20
2018-11-07T14:43:02.881Z,4.50
2018-11-07T14:49:27.588Z,3.87
2018-11-07T14:51:35.339Z,4.58
2018-11-07T14:53:43.441Z,3.53
2018-11-07T14:55:54.673Z,3.13
2018-11-07T14:58:02.404Z,3.77
2018-11-07T15:00:17.363Z,4.53
2018-11-07T15:02:25.219Z,4.50
2018-11-07T15:04:32.927Z,6.30
2018-11-07T15:06:41.448Z,3.70
2018-11-07T15:08:49.371Z,5.03
2018-11-07T15:10:57.198Z,3.70
2018-11-07T15:13:05.032Z,3.60
2018-11-07T15:15:17.279Z,4.20
2018-11-07T15:17:25.191Z,3.87
2018-11-07T15:19:34.068Z,5.60
2018-11-07T15:21:44.474Z,2.97
2018-11-07T15:23:49.587Z,3.50
2018-11-07T15:25:58.417Z,4.13
2018-11-07T15:28:09.044Z,8.10
2018-11-07T15:30:19.773Z,5.07
2018-11-07T15:32:28.648Z,8.75
2018-11-07T15:34:46.497Z,6.63
2018-11-07T15:37:05.644Z,7.83
2018-11-07T15:39:15.142Z,4.47
2018-11-07T15:46:58.842Z,4.10
2018-11-07T15:49:06.800Z,8.33
2018-11-07T15:51:19.015Z,4.27
2018-11-07T15:56:12.408Z,2.62
2018-11-07T15:58:24.510Z,6.00
2018-11-07T16:00:32.210Z,4.23
2018-11-07T16:02:40.640Z,3.27
2018-11-07T16:04:48.651Z,6.53
2018-11-07T16:06:57.607Z,3.40
2018-11-07T16:09:07.215Z,4.37
2018-11-07T16:11:15.052Z,3.00
2018-11-07T16:13:22.847Z,5.20
2018-11-07T16:15:30.794Z,2.95
2018-11-07T16:17:38.842Z,3.27
2018-11-07T16:19:49.293Z,3.50
2018-11-07T16:21:57.107Z,3.80
2018-11-07T16:24:02.466Z,3.20
2018-11-07T16:26:14.201Z,5.50
2018-11-07T16:28:32.925Z,8.30
2018-11-07T16:30:47.981Z,6.37
2018-11-07T16:33:30.711Z,4.90
2018-11-07T16:35:38.702Z,4.47
2018-11-07T16:37:47.416Z,4.60
2018-11-07T16:39:58.086Z,5.43
2018-11-07T16:42:06.374Z,4.07
2018-11-07T16:44:14.442Z,6.20
2018-11-07T16:46:22.224Z,6.20
2018-11-07T16:48:30.047Z,5.10
2018-11-07T16:50:37.807Z,11.47
2018-11-07T16:52:45.678Z,7.60
2018-11-07T16:54:53.467Z,8.30
2018-11-07T16:57:01.205Z,7.80
2018-11-07T16:59:10.317Z,12.30
2018-11-07T17:01:18.295Z,13.20
2018-11-07T17:03:27.099Z,11.53
2018-11-07T17:05:35.521Z,12.27
2018-11-07T17:07:43.370Z,15.10
2018-11-07T17:09:51.659Z,16.27
2018-11-07T17:12:00.397Z,19.17
2018-11-07T17:14:08.354Z,15.77
2018-11-07T17:16:16.177Z,14.03
2018-11-07T17:18:24.137Z,17.23
2018-11-07T17:20:31.994Z,15.97
2018-11-07T17:22:40.528Z,18.60
2018-11-07T17:24:46.503Z,23.77
2018-11-07T17:26:54.313Z,19.90
2018-11-07T17:29:02.122Z,16.00
2018-11-07T17:31:09.872Z,17.03
2018-11-07T17:33:18.775Z,21.47
2018-11-07T17:35:26.745Z,18.03
2018-11-07T17:43:14.864Z,13.90
2018-11-07T17:45:23.685Z,15.90
2018-11-07T17:47:32.230Z,12.10
2018-11-07T17:49:41.066Z,8.67
2018-11-07T17:51:48.944Z,10.17
2018-11-07T17:53:58.554Z,7.73
2018-11-07T17:56:06.435Z,11.70
2018-11-07T17:58:16.481Z,9.43
2018-11-07T18:00:33.377Z,14.90
2018-11-07T18:02:41.178Z,11.47
2018-11-07T18:04:49.022Z,10.53
2018-11-07T18:06:56.853Z,8.07
2018-11-07T18:09:05.318Z,9.40
2018-11-07T18:11:13.274Z,8.73
2018-11-07T18:13:21.113Z,14.93
2018-11-07T18:15:28.907Z,12.83
2018-11-07T18:17:36.773Z,10.63
2018-11-07T18:19:44.631Z,16.42
2018-11-07T18:21:52.565Z,13.43
2018-11-07T18:24:00.291Z,14.50
2018-11-07T18:26:05.927Z,9.73
2018-11-07T18:28:13.848Z,10.30
2018-11-07T18:30:22.171Z,11.70
2018-11-07T18:32:30.107Z,10.23
2018-11-07T18:34:38.254Z,14.40
2018-11-07T18:36:46.035Z,11.00
2018-11-07T18:38:53.949Z,17.87
2018-11-07T18:41:02.037Z,12.80
2018-11-07T18:43:09.864Z,11.03
2018-11-07T18:45:17.633Z,19.47
2018-11-07T18:47:25.551Z,24.90
2018-11-07T18:49:33.376Z,22.03
2018-11-07T18:51:41.195Z,17.90
2018-11-07T18:53:49.155Z,21.63
2018-11-07T18:55:57.042Z,16.77
2018-11-07T18:58:04.835Z,20.10
2018-11-07T19:00:15.569Z,15.77
2018-11-07T19:02:23.516Z,15.20
2018-11-07T19:04:31.424Z,16.40
2018-11-07T19:06:39.444Z,14.87
2018-11-07T19:08:47.268Z,17.30
2018-11-07T19:10:55.205Z,17.53
2018-11-07T19:13:03.287Z,17.37
2018-11-07T19:15:12.928Z,17.17
2018-11-07T19:17:20.961Z,11.95
2018-11-07T19:19:28.623Z,17.20
2018-11-07T19:21:36.509Z,11.63
2018-11-07T19:23:45.308Z,13.57
2018-11-07T19:25:53.165Z,10.97
2018-11-07T19:28:01.147Z,12.13
2018-11-07T19:30:12.761Z,13.27
2018-11-07T19:32:20.843Z,12.40
2018-11-07T19:34:28.732Z,11.47
2018-11-07T19:36:36.610Z,11.00
2018-11-07T19:38:44.800Z,14.47
2018-11-07T19:40:52.998Z,16.93
2018-11-07T19:43:00.825Z,13.40
2018-11-07T19:45:12.328Z,18.13
2018-11-07T19:47:21.010Z,12.75
2018-11-07T19:49:28.804Z,13.60
2018-11-07T19:51:37.119Z,14.57
2018-11-07T19:53:45.262Z,17.13
2018-11-07T19:55:53.140Z,20.70
2018-11-07T19:58:02.880Z,16.30
2018-11-07T20:00:16.560Z,14.20
2018-11-07T20:02:24.465Z,14.07
2018-11-07T20:04:32.339Z,14.17
2018-11-07T20:06:40.204Z,14.40
2018-11-07T20:08:48.081Z,15.07
2018-11-07T20:10:56.003Z,12.03
2018-11-07T20:13:04.019Z,13.97
2018-11-07T20:15:13.160Z,11.07
2018-11-07T20:17:21.043Z,12.83
2018-11-07T20:19:28.935Z,15.57
2018-11-07T20:21:36.866Z,27.03
2018-11-07T20:23:44.667Z,20.33
2018-11-07T20:25:52.502Z,23.80
2018-11-07T20:28:00.362Z,22.53
2018-11-07T20:30:05.503Z,27.00
2018-11-07T20:32:13.429Z,23.07
2018-11-07T20:34:22.284Z,35.80
2018-11-07T20:36:30.225Z,33.40
2018-11-07T20:38:38.164Z,22.25
2018-11-07T20:40:46.079Z,23.47
2018-11-07T20:42:57.411Z,22.30
2018-11-07T20:45:05.586Z,17.53
2018-11-07T20:47:13.416Z,17.73
2018-11-07T20:49:21.265Z,16.90
2018-11-07T20:51:30.449Z,23.27
2018-11-07T20:53:38.457Z,21.10
2018-11-07T20:55:46.414Z,23.40
2018-11-07T20:57:54.393Z,18.20
2018-11-07T21:00:02.225Z,19.90
2018-11-07T21:02:10.004Z,21.87
2018-11-07T21:04:17.956Z,19.13
2018-11-07T21:06:25.883Z,17.57
2018-11-07T21:08:33.871Z,18.60
2018-11-07T21:10:41.758Z,20.60
2018-11-07T21:12:49.868Z,16.67
2018-11-07T21:14:58.849Z,18.33
2018-11-07T21:17:06.863Z,15.47
2018-11-07T21:19:14.818Z,16.00
2018-11-07T21:21:22.732Z,17.93
2018-11-07T21:23:31.777Z,15.60
2018-11-07T21:25:39.553Z,15.13
2018-11-07T21:27:54.363Z,19.30
2018-11-07T21:30:02.389Z,11.07
2018-11-07T21:32:08.182Z,15.15
2018-11-07T21:34:16.114Z,22.63
2018-11-07T21:36:23.962Z,13.20
2018-11-07T21:38:31.828Z,12.70
2018-11-07T21:40:39.657Z,16.17
2018-11-07T21:42:48.219Z,15.87
2018-11-07T21:44:56.030Z,12.67
2018-11-07T21:47:03.924Z,10.37
2018-11-07T21:49:11.710Z,8.80
2018-11-07T21:51:19.615Z,11.67
2018-11-07T21:53:27.437Z,15.83
2018-11-07T21:55:35.289Z,21.33
2018-11-07T21:57:43.054Z,13.30
2018-11-07T21:59:50.863Z,11.70
2018-11-07T22:01:58.768Z,16.53
2018-11-07T22:04:07.166Z,12.20
2018-11-07T22:06:14.937Z,15.37
2018-11-07T22:08:22.810Z,12.57
2018-11-07T22:10:30.645Z,12.57
2018-11-07T22:12:38.621Z,12.43
2018-11-07T22:14:46.636Z,16.40
2018-11-07T22:16:54.395Z,11.17
2018-11-07T22:19:02.151Z,12.80
2018-11-07T22:21:09.892Z,14.90
2018-11-07T22:23:17.710Z,9.70
2018-11-07T22:25:25.492Z,10.78
2018-11-07T22:27:33.302Z,11.90
2018-11-07T22:29:41.252Z,10.30
2018-11-07T22:31:48.934Z,17.37
2018-11-07T22:33:54.739Z,15.67
2018-11-07T22:36:02.471Z,15.13
2018-11-07T22:38:10.260Z,14.50
2018-11-07T22:40:19.216Z,13.57
2018-11-07T22:42:27.096Z,13.50
2018-11-07T22:44:34.961Z,12.13
2018-11-07T22:46:42.755Z,13.80
2018-11-07T22:48:50.568Z,14.50
2018-11-07T22:50:58.506Z,13.48
2018-11-07T22:53:06.236Z,15.60
2018-11-07T22:55:14.019Z,9.00
2018-11-07T22:57:22.774Z,9.83
2018-11-07T22:59:30.517Z,11.03
2018-11-07T23:01:41.996Z,8.07
2018-11-07T23:03:49.840Z,8.40
2018-11-07T23:05:57.553Z,11.37
2018-11-07T23:08:05.306Z,15.07
2018-11-07T23:10:13.239Z,12.17
2018-11-07T23:12:21.405Z,10.25
2018-11-07T23:14:29.157Z,14.33
2018-11-07T23:16:36.903Z,16.47
2018-11-07T23:18:44.643Z,10.23
2018-11-07T23:20:52.364Z,12.23
2018-11-07T23:23:00.093Z,12.53
2018-11-07T23:25:08.565Z,11.83
2018-11-07T23:27:16.395Z,13.23
2018-11-07T23:29:24.184Z,12.83
2018-11-07T23:31:40.171Z,14.17
2018-11-07T23:33:52.136Z,14.60
2018-11-07T23:36:12.155Z,13.20
2018-11-07T23:38:27.578Z,20.03
2018-11-07T23:40:45.555Z,18.25
2018-11-07T23:42:52.026Z,14.00
2018-11-07T23:44:59.748Z,10.00
2018-11-07T23:47:07.860Z,11.67
2018-11-07T23:49:15.935Z,17.97
2018-11-07T23:51:23.880Z,21.30
2018-11-07T23:53:31.672Z,17.80
2018-11-07T23:55:39.392Z,20.23
2018-11-07T23:59:58.407Z,16.10
